Station MZXC1 - 9415102 - Martinez-Amorco Pier, CA Image indicating link to RSS feed of recent meteorological observations for station MZXC1


Conditions at MZXC1 as of
0630 GMT on 04/23/2024:
     

Click on the graph icon in the table below to see a time series plot of the last five days of that observation.

5-day plot - Wind Direction Wind Direction (WDIR):WSW ( 240 deg true )
5-day plot - Wind Speed Wind Speed (WSPD): 15.0 kts
5-day plot - Wind Gust Wind Gust (GST): 19.0 kts
5-day plot - Atmospheric Pressure Atmospheric Pressure (PRES):29.87 in
5-day plot - Air Temperature Air Temperature (ATMP): 55.8 °F
5-day plot - Water Temperature Water Temperature (WTMP): 63.5 °F
5-day plot - Wind Speed at 10 Meters Wind Speed at 10 meters (WSPD10M): 15.5 kts
5-day plot - Wind Speed at 20 Meters Wind Speed at 20 meters (WSPD20M): 17.5 kts
5-day plot -  Wind Speed, Wind Gust and Atmospheric Pressure Combined plot of Wind Speed, Gust, and Air Pressure
NOS Water Level Observation Network Water Level
Previous observations
TIME
(GMT)
5-day plot - Wind Direction
WDIR
 
5-day plot - Wind Speed
WSPD
kts
5-day plot - Wind Gust
GST
kts
5-day plot - Wave Height
WVHT
ft
5-day plot - Dominant Wave Period
DPD
sec
5-day plot - Average Wave Period
APD
sec
5-day plot - Mean Wave Direction
MWD
 
5-day plot - Atmospheric Pressure
PRES
in
5-day plot - Pressure Tendency
PTDY
in
5-day plot - Air Temperature
ATMP
°F
5-day plot - Water Temperature
WTMP
°F
5-day plot - Dew Point
DEWP
°F
5-day plot - Salinity
SAL
psu
5-day plot - Visibility
VIS
nmi
5-day plot - Tide (above MLLW)
TIDE
ft
2024-04-23 0624WSW 15.0 19.0----29.87- 55.8 63.5----
2024-04-23 0618 W 13.0 17.1----29.87- 55.9 63.5----
2024-04-23 0612WSW 14.0 19.0----29.87- 55.8 63.5----
2024-04-23 0606 W 14.0 21.0----29.87- 55.8 63.5----
2024-04-23 0600 W 13.0 17.1----29.87+0.05 55.9 63.5----
2024-04-23 0554WSW 12.0 15.9----29.87- 55.8 63.5----
2024-04-23 0548WSW 14.0 18.1----29.87- 55.6 63.7----
2024-04-23 0542WSW 14.0 17.1----29.87- 55.9 63.7----
2024-04-23 0536WSW 15.9 19.0----29.87- 55.8 63.7----
2024-04-23 0530WSW 15.0 21.0----29.87- 55.8 63.7----
2024-04-23 0524WSW 18.1 24.1----29.87- 55.6 63.7----
2024-04-23 0518WSW 18.1 22.0----29.87- 55.8 63.7----
2024-04-23 0512WSW 18.1 22.9----29.87- 55.8 63.7----
2024-04-23 0506WSW 13.0 21.0----29.87- 56.1 63.7----
2024-04-23 0500WSW 17.1 24.1----29.87+0.07 55.9 63.7----
2024-04-23 0454 W 17.1 22.0----29.86- 55.8 63.7----
2024-04-23 0448 W 13.0 20.0----29.86- 55.9 63.7----
2024-04-23 0442WSW 13.0 20.0----29.86- 55.9 63.7----
2024-04-23 0436 W 15.0 22.9----29.85- 55.9 63.7----
2024-04-23 0430 W 14.0 22.0----29.85- 55.8 63.7----
2024-04-23 0424 W 15.0 20.0----29.85- 55.8 63.7----
2024-04-23 0418 W 11.1 19.0----29.85- 55.9 63.7----
2024-04-23 0412 W 15.9 21.0----29.84- 55.8 63.9----
2024-04-23 0406 W 15.0 22.0----29.84- 55.8 63.9----
2024-04-23 0400 W 17.1 22.9----29.84+0.04 55.9 63.9----
2024-04-23 0354 W 15.9 25.1----29.84- 55.9 63.9----
2024-04-23 0348 W 18.1 27.0----29.84- 55.9 63.9----
2024-04-23 0342 W 17.1 25.1----29.83- 56.1 63.9----
2024-04-23 0336 W 19.0 24.1----29.83- 55.9 63.9----
2024-04-23 0330WSW 18.1 22.9----29.83- 55.9 63.9----
2024-04-23 0324WSW 19.0 25.1----29.82- 55.9 63.9----
2024-04-23 0318 SW 19.0 25.1----29.82- 56.1 63.9----
2024-04-23 0312 SW 18.1 22.0----29.82- 56.1 63.9----
2024-04-23 0306 SW 17.1 21.0----29.82- 56.3 63.9----
2024-04-23 0300 SW 12.0 20.0----29.82+0.04 56.7 63.9----
2024-04-23 0254WSW 12.0 20.0----29.82- 56.8 63.9----
2024-04-23 0248WSW 15.0 19.0----29.81- 57.0 63.9----
2024-04-23 0242 SW 15.9 21.0----29.81- 57.0 63.9----
2024-04-23 0236WSW 17.1 20.0----29.80- 57.2 63.9----
2024-04-23 0230 SW 14.0 20.0----29.80- 57.6 63.9----
2024-04-23 0224 SW 14.0 19.0----29.80- 57.9 63.9----
2024-04-23 0218 SW 15.9 20.0----29.80- 57.9 63.9----
2024-04-23 0212 SW 15.0 20.0----29.80- 57.6 63.9----
2024-04-23 0206 SW 12.0 15.9----29.80- 57.9 63.7----
2024-04-23 0200 SW 11.1 20.0----29.80+0.02 58.3 63.7----
2024-04-23 0154 SW 15.9 22.0----29.80- 57.9 63.7----
2024-04-23 0148 SW 17.1 22.9----29.79- 57.9 63.5----
2024-04-23 0142 SW 15.9 20.0----29.79- 58.3 63.5----
2024-04-23 0136 SW 15.0 19.0----29.80- 58.5 63.3----
2024-04-23 0130 SW 13.0 19.0----29.80- 58.6 63.3----
2024-04-23 0124 SW 13.0 19.0----29.80- 58.8 63.3----
2024-04-23 0118SSW 9.9 15.0----29.80-- 63.1----
2024-04-23 0112SSW 7.0 17.1----29.80-- 63.1----
2024-04-23 0106 SW 12.0 18.1----29.80-- 63.1----
2024-04-23 0100 SW 12.0 19.0----29.80+0.01 59.7 63.3----
2024-04-23 0054 SW 5.1 19.0----29.80- 60.4 63.3----
2024-04-23 0048WSW 14.0 19.0----29.79-- 63.5----
2024-04-23 0042 W 13.0 19.0----29.79-- 63.5----
2024-04-23 0036 W 17.1 27.0----29.78-- 63.5----
2024-04-23 0030 W 22.9 29.9----29.77- 62.6 63.5----
2024-04-23 0024WSW 21.0 25.1----29.77- 61.2 63.5----
2024-04-23 0018--------- 61.3 63.7----
2024-04-23 0012--------- 61.7 63.7----
2024-04-23 0006--------- 62.4 63.7----
2024-04-23 0000 SW 11.1 17.1----29.78-0.01 63.7 63.7----
2024-04-22 2354WSW 9.9 13.0----29.78- 64.2 63.9----
2024-04-22 2348WSW 7.0 12.0----29.78- 64.6 63.9----
2024-04-22 2342 SW 11.1 15.9----29.78- 64.6 63.9----
2024-04-22 2336 SW 12.0 15.0----29.78- 64.8 63.9----
2024-04-22 2330 SW 9.9 13.0----29.78- 65.3 63.7----
2024-04-22 2324 SW 11.1 13.0----29.78- 65.5 63.7----
2024-04-22 2318 SW 11.1 15.0----29.78- 65.7 63.5----
2024-04-22 2312 SW 11.1 14.0----29.78- 65.3 63.5----
2024-04-22 2306 SW 11.1 18.1----29.78- 65.7 63.3----
2024-04-22 2300 SW 14.0 18.1----29.78-0.02 65.3 63.1----
2024-04-22 2254 SW 14.0 18.1----29.78- 65.7 63.0----
2024-04-22 2248 SW 15.0 19.0----29.78- 65.7 63.0----
2024-04-22 2242 SW 14.0 18.1----29.78- 65.8 63.0----
2024-04-22 2236 SW 15.9 19.0----29.78- 66.0 62.6----
2024-04-22 2230 SW 15.9 18.1----29.78- 66.4 62.6----
2024-04-22 2224 SW 15.0 17.1----29.78- 67.1 62.4----
2024-04-22 2218 SW 13.0 15.9----29.78- 66.7 62.4----
2024-04-22 2212 SW 13.0 17.1----29.78- 66.9 62.4----
2024-04-22 2206 SW 15.0 18.1----29.78- 66.9 62.4----
2024-04-22 2200WSW 14.0 17.1----29.78-0.03 68.0 62.4----
2024-04-22 2154WSW 15.0 17.1----29.78- 68.7 62.6----
2024-04-22 2148WSW 12.0 14.0----29.78- 69.1 62.8----
2024-04-22 2142WSW 12.0 14.0----29.78- 69.6 63.0----
2024-04-22 2136WSW 12.0 14.0----29.78- 69.3 63.1----
2024-04-22 2130WSW 13.0 14.0----29.79- 69.1 63.3----
2024-04-22 2124WSW 13.0 15.0----29.79- 69.6 63.5----
2024-04-22 2118WSW 12.0 15.0----29.79- 69.8 63.7----
2024-04-22 2112WSW 13.0 14.0----29.79- 69.4 63.9----
2024-04-22 2106 W 11.1 15.0----29.79- 70.3 63.9----
2024-04-22 2100WNW 13.0 15.0----29.79-0.03 71.4 63.9----
2024-04-22 2054WNW 13.0 14.0----29.79- 72.1 64.0----
2024-04-22 2048WNW 12.0 13.0----29.79- 72.0 64.0----
2024-04-22 2042 NW 12.0 13.0----29.79- 72.1 64.2----
2024-04-22 2036WNW 11.1 12.0----29.79- 72.9 64.2----
2024-04-22 2030WNW 12.0 13.0----29.79- 72.7 64.2----
2024-04-22 2024WNW 13.0 13.0----29.79- 72.5 64.0----
2024-04-22 2018WNW 12.0 12.0----29.79- 72.0 63.9----
2024-04-22 2012WNW 11.1 12.0----29.79- 71.8 63.9----
2024-04-22 2006WNW 11.1 12.0----29.79- 71.4 63.7----
2024-04-22 2000WNW 11.1 12.0----29.80-0.03 70.7 63.3----
2024-04-22 1954 W 9.9 12.0----29.80- 70.7 63.1----
2024-04-22 1948WNW 9.9 12.0----29.80- 70.3 63.3----
2024-04-22 1942WNW 11.1 11.1----29.80- 70.9 63.3----
2024-04-22 1936WNW 9.9 11.1----29.80- 70.5 63.5----
2024-04-22 1930WNW 8.0 8.9----29.80- 71.6 63.5----
2024-04-22 1924WNW 7.0 7.0----29.80- 71.4 63.7----
2024-04-22 1918 W 6.0 7.0----29.80- 71.4 63.9----
2024-04-22 1912 W 6.0 6.0----29.81- 71.1 63.9----
2024-04-22 1906 W 6.0 6.0----29.81- 71.2 63.9----
2024-04-22 1900 W 5.1 5.1----29.81-0.02 71.1 63.7----
2024-04-22 1854 W 5.1 6.0----29.81- 70.7 63.5----
2024-04-22 1848 W 5.1 6.0----29.81- 70.5 63.7----
2024-04-22 1842 W 5.1 6.0----29.81- 70.0 63.7----
2024-04-22 1836 W 5.1 6.0----29.81- 70.0 63.5----
2024-04-22 1830 W 6.0 6.0----29.81- 69.4 63.7----
2024-04-22 1824 W 6.0 7.0----29.81- 68.9 63.7----
2024-04-22 1818 W 7.0 7.0----29.82- 67.8 63.9----
2024-04-22 1812 W 7.0 7.0----29.82- 67.6 63.9----
2024-04-22 1806 W 7.0 8.0----29.82- 67.3 63.7----
2024-04-22 1800 W 7.0 8.0----29.82-0.02 67.1 63.5----
2024-04-22 1754 W 7.0 8.0----29.82- 67.3 63.5----
2024-04-22 1748 W 7.0 8.0----29.82- 66.7 63.5----
2024-04-22 1742 W 7.0 8.0----29.82- 66.4 63.5----
2024-04-22 1736 W 8.0 8.9----29.82- 66.0 63.3----
2024-04-22 1730 W 8.9 9.9----29.82- 65.7 63.3----
2024-04-22 1724 W 8.9 11.1----29.82- 65.5 63.3----
2024-04-22 1718 W 9.9 9.9----29.82- 65.3 63.3----
2024-04-22 1712 W 8.9 8.9----29.82- 65.3 63.1----
2024-04-22 1706 W 8.0 8.9----29.82- 65.3 63.1----
2024-04-22 1700WNW 8.0 8.0----29.82-0.01 65.7 63.1----
2024-04-22 1654 W 6.0 8.9----29.82- 64.9 63.1----
2024-04-22 1648WNW 7.0 8.9----29.83- 64.6 63.0----
2024-04-22 1642WNW 8.9 11.1----29.83- 64.4 63.0----
2024-04-22 1636 W 8.0 9.9----29.83- 64.0 63.0----
2024-04-22 1630WNW 8.9 9.9----29.83- 63.9 62.8----
2024-04-22 1624WNW 8.9 9.9----29.83- 63.5 62.8----
2024-04-22 1618WNW 8.0 8.9----29.83- 63.1 62.8----
2024-04-22 1612 W 7.0 8.0----29.83- 62.8 62.8----
2024-04-22 1606 W 7.0 8.0----29.83- 62.4 62.8----
2024-04-22 1600 W 7.0 7.0----29.83+0.00 62.1 62.6----
2024-04-22 1554 W 6.0 7.0----29.83- 62.1 62.6----
2024-04-22 1548 W 6.0 7.0----29.83- 61.7 62.6----
2024-04-22 1542 W 6.0 7.0----29.83- 61.5 62.4----
2024-04-22 1536 W 5.1 7.0----29.83- 61.2 62.4----
2024-04-22 1530 W 5.1 7.0----29.83- 60.8 62.4----
2024-04-22 1524 W 7.0 8.0----29.83- 60.8 62.4----
2024-04-22 1518 W 7.0 8.0----29.83- 60.6 62.2----
2024-04-22 1512 W 6.0 7.0----29.83- 60.3 62.2----
2024-04-22 1506 W 7.0 7.0----29.83- 60.1 62.2----
2024-04-22 1500 W 6.0 7.0----29.83+0.01 59.9 62.2----
2024-04-22 1454 W 6.0 6.0----29.83- 59.5 62.2----
2024-04-22 1448 W 5.1 5.1----29.83- 59.7 62.1----
2024-04-22 1442WSW 5.1 6.0----29.83- 59.5 62.1----
2024-04-22 1436WSW 5.1 6.0----29.83- 59.2 62.1----
2024-04-22 1430 SW 2.9 4.1----29.83- 58.6 62.1----
2024-04-22 1424 SW 2.9 4.1----29.83- 58.3 62.1----
2024-04-22 1418 SW 2.9 5.1----29.83- 58.3 62.1----
2024-04-22 1412 SW 1.9 2.9----29.83- 57.7 61.9----
2024-04-22 1406 SW 1.9 4.1----29.83- 57.2 61.9----
2024-04-22 1400 SW 2.9 4.1----29.83+0.00 57.0 61.9----
2024-04-22 1354 SW 4.1 5.1----29.83- 56.7 62.1----
2024-04-22 1348 SW 4.1 4.1----29.83- 56.8 62.1----
2024-04-22 1342 SW 2.9 4.1----29.83- 57.0 62.1----
2024-04-22 1336SSW 2.9 4.1----29.83- 57.0 62.1----
2024-04-22 1330 SW 2.9 6.0----29.83- 57.2 62.2----
2024-04-22 1324 SW 2.9 6.0----29.83- 57.6 62.2----
2024-04-22 1318WSW 5.1 7.0----29.83- 58.5 62.2----
2024-04-22 1312 W 7.0 8.0----29.83- 58.6 62.2----
2024-04-22 1306 W 6.0 7.0----29.83- 58.8 62.2----
2024-04-22 1300 W 6.0 8.0----29.83-0.02 58.6 62.1----
2024-04-22 1254 W 7.0 8.0----29.83- 58.6 62.1----
2024-04-22 1248 W 7.0 8.9----29.83- 58.6 62.1----
2024-04-22 1242 W 7.0 8.9----29.83- 58.8 62.1----
2024-04-22 1236 W 7.0 8.9----29.83- 58.8 62.1----
2024-04-22 1230 W 7.0 8.9----29.83- 58.8 62.1----
2024-04-22 1224 W 7.0 8.9----29.83- 58.8 62.1----
2024-04-22 1218 W 7.0 8.9----29.83- 58.8 62.1----
2024-04-22 1212 W 7.0 8.9----29.83- 58.6 62.1----
2024-04-22 1206 W 7.0 8.9----29.83- 58.6 62.1----
2024-04-22 1200 W 7.0 8.9----29.83-0.03 58.8 62.1----
2024-04-22 1154 W 7.0 8.0----29.83- 58.8 62.1----
2024-04-22 1148WNW 7.0 8.9----29.83- 59.0 62.1----
2024-04-22 1142WNW 7.0 9.9----29.83- 59.0 62.1----
2024-04-22 1136WNW 8.9 11.1----29.83- 59.0 62.1----
2024-04-22 1130 W 8.9 11.1----29.83- 59.2 62.1----
2024-04-22 1124 W 8.0 9.9----29.83- 59.5 62.1----
2024-04-22 1118 W 8.0 8.9----29.83- 59.5 62.1----
2024-04-22 1112 W 8.0 8.9----29.83- 59.7 62.2----
2024-04-22 1106 W 8.0 8.9----29.83- 59.7 62.2----
2024-04-22 1100 W 7.0 8.9----29.83-0.04 59.5 62.2----
2024-04-22 1054 W 7.0 8.9----29.83- 59.5 62.2----
2024-04-22 1048 W 8.0 9.9----29.83- 59.5 62.2----
2024-04-22 1042 W 7.0 8.0----29.83- 59.5 62.2----
2024-04-22 1036 W 7.0 8.0----29.83- 59.5 62.1----
2024-04-22 1030 W 5.1 8.9----29.84- 59.9 62.1----
2024-04-22 1024WNW 7.0 8.0----29.84- 59.9 62.1----
2024-04-22 1018 W 6.0 7.0----29.84- 60.1 62.1----
2024-04-22 1012 W 6.0 7.0----29.84- 60.1 62.1----
2024-04-22 1006 W 6.0 8.0----29.84- 60.3 62.1----
2024-04-22 1000 W 6.0 8.0----29.84-0.04 60.3 62.1----
2024-04-22 0954 W 8.0 8.9----29.84- 60.3 62.1----
2024-04-22 0948 W 7.0 8.0----29.84- 60.6 62.1----
2024-04-22 0942 W 5.1 7.0----29.85- 60.6 62.1----
2024-04-22 0936 W 6.0 8.0----29.85- 60.8 61.9----
2024-04-22 0930 W 6.0 8.0----29.85- 60.6 61.9----
2024-04-22 0924 W 7.0 8.9----29.85- 60.8 61.9----
2024-04-22 0918 W 7.0 8.9----29.85- 61.0 61.9----
2024-04-22 0912 W 7.0 8.9----29.85- 61.2 62.1----
2024-04-22 0906 W 7.0 8.0----29.86- 61.5 62.1----
2024-04-22 0900 W 7.0 7.0----29.86-0.04 61.5 62.1----
2024-04-22 0854 W 6.0 8.0----29.86- 61.7 62.1----
2024-04-22 0848 W 7.0 8.0----29.86- 61.7 62.1----
2024-04-22 0842 W 6.0 7.0----29.86- 61.7 62.1----
2024-04-22 0836 W 7.0 8.0----29.86- 61.7 62.2----
2024-04-22 0830 W 6.0 7.0----29.87- 61.9 62.2----
2024-04-22 0824 W 6.0 6.0----29.87- 61.9 62.2----
2024-04-22 0818 W 6.0 7.0----29.87- 61.9 62.4----
2024-04-22 0812 W 6.0 7.0----29.87- 62.1 62.4----
2024-04-22 0806 W 6.0 8.0----29.87- 62.1 62.4----
2024-04-22 0800 W 6.0 7.0----29.87-0.04 62.2 62.4----
2024-04-22 0754 W 5.1 6.0----29.87- 62.4 62.6----
2024-04-22 0748 W 6.0 6.0----29.87- 62.4 62.6----
2024-04-22 0742 W 4.1 5.1----29.88- 62.6 62.6----
2024-04-22 0736WSW 4.1 5.1----29.88- 62.6 62.8----
2024-04-22 0730WSW 5.1 5.1----29.88- 62.6 63.0----
2024-04-22 0724WSW 5.1 6.0----29.88- 62.6 63.0----
2024-04-22 0718 W 5.1 6.0----29.88- 63.0 63.0----
2024-04-22 0712 W 5.1 6.0----29.88- 62.8 63.0----
2024-04-22 0706 W 5.1 6.0----29.88- 63.0 63.0----
2024-04-22 0700 W 6.0 7.0----29.88-0.01 63.0 63.0----
2024-04-22 0654 W 6.0 7.0----29.88- 63.0 63.0----